Time;durP1;ratioP1;P1;durP2;ratioP2;P2;SDS_P1;SDS_P2;PMS_P1;PMS_P2;Temp;Humidity;BMP_temperature;BMP_pressure;BME280_temperature;BME280_humidity;BME280_pressure;Samples;Min_cycle;Max_cycle;Signal;HPM_P1;HPM_P2
2021/09/09 00:01:40;;;;;;;9.98;7.22;;;;;;;23.68;53.80;101374.44;4984819;28;20475;-71
2021/09/09 00:04:06;;;;;;;9.38;6.93;;;;;;;23.73;53.75;101381.84;5002524;28;20042;-72
2021/09/09 00:06:32;;;;;;;10.10;7.30;;;;;;;23.73;53.84;101377.34;4991692;28;20038;-71
2021/09/09 00:08:58;;;;;;;10.48;7.50;;;;;;;23.71;53.76;101373.25;5003917;28;20041;-72
2021/09/09 00:11:24;;;;;;;10.60;7.38;;;;;;;23.72;53.68;101359.75;5000062;28;20494;-71
2021/09/09 00:13:51;;;;;;;12.48;7.60;;;;;;;23.68;53.76;101357.66;5002496;28;20037;-72
2021/09/09 00:16:18;;;;;;;9.57;6.85;;;;;;;23.68;53.47;101347.84;4998805;28;20048;-72
2021/09/09 00:18:44;;;;;;;9.90;7.30;;;;;;;23.69;53.72;101346.00;4999841;28;20046;-71
2021/09/09 00:21:10;;;;;;;9.65;7.25;;;;;;;23.70;53.78;101345.84;5000457;28;20249;-71
2021/09/09 00:23:37;;;;;;;8.82;6.68;;;;;;;23.67;53.88;101332.09;5002498;28;20038;-71
2021/09/09 00:26:04;;;;;;;9.48;7.28;;;;;;;23.70;53.96;101340.53;4985203;28;20051;-71
2021/09/09 00:28:31;;;;;;;12.38;8.20;;;;;;;23.70;53.84;101339.69;5000781;28;20030;-72
2021/09/09 00:30:58;;;;;;;11.13;7.53;;;;;;;23.64;53.91;101340.44;4999769;28;20122;-72
2021/09/09 00:33:24;;;;;;;10.60;7.38;;;;;;;23.68;53.99;101334.56;5000841;28;20540;-72
2021/09/09 00:35:50;;;;;;;11.93;7.57;;;;;;;23.69;53.86;101343.34;4985687;28;20033;-71
2021/09/09 00:38:16;;;;;;;9.68;6.90;;;;;;;23.64;53.88;101335.97;5002137;28;20483;-71
2021/09/09 00:40:41;;;;;;;11.68;8.07;;;;;;;23.63;53.63;101328.19;4983680;28;20415;-72
2021/09/09 00:43:07;;;;;;;10.82;7.65;;;;;;;23.69;54.01;101336.19;5000289;28;20038;-72
2021/09/09 00:45:32;;;;;;;9.27;6.80;;;;;;;23.66;53.91;101330.44;4997665;28;20031;-72
2021/09/09 00:47:58;;;;;;;11.65;7.72;;;;;;;23.65;53.70;101326.13;4982636;28;20038;-71
2021/09/09 00:50:24;;;;;;;10.40;7.38;;;;;;;23.69;53.90;101333.53;4983465;28;20037;-71
2021/09/09 00:52:51;;;;;;;9.93;7.13;;;;;;;23.68;53.86;101333.72;4998776;28;20030;-72
2021/09/09 00:55:18;;;;;;;9.25;7.10;;;;;;;23.59;53.90;101314.44;4992517;28;20122;-71
2021/09/09 00:57:45;;;;;;;9.40;6.93;;;;;;;23.68;53.76;101333.72;5001940;28;20487;-71
2021/09/09 01:00:12;;;;;;;9.70;7.22;;;;;;;23.69;53.70;101332.72;4998757;28;20038;-72
2021/09/09 01:02:38;;;;;;;9.45;6.75;;;;;;;23.66;53.92;101327.78;5001307;28;20034;-71
2021/09/09 01:05:05;;;;;;;10.40;7.80;;;;;;;23.66;53.89;101331.25;5001435;28;20900;-72
2021/09/09 01:07:31;;;;;;;9.98;7.28;;;;;;;23.61;53.62;101320.41;4996966;28;20034;-71
2021/09/09 01:09:59;;;;;;;11.43;7.75;;;;;;;23.64;53.89;101316.53;4996127;28;20049;-72
2021/09/09 01:12:26;;;;;;;9.88;7.40;;;;;;;23.64;53.82;101325.31;4999980;28;20034;-72
2021/09/09 01:14:51;;;;;;;9.80;6.78;;;;;;;23.63;53.67;101314.88;4988426;28;20042;-71
2021/09/09 01:17:17;;;;;;;10.23;7.40;;;;;;;23.68;53.64;101310.63;4983225;28;20361;-72
2021/09/09 01:19:42;;;;;;;10.20;7.38;;;;;;;23.68;53.81;101307.97;5001460;28;20541;-72
2021/09/09 01:22:08;;;;;;;10.45;7.07;;;;;;;23.63;53.69;101298.94;5000261;28;20045;-72
2021/09/09 01:24:34;;;;;;;10.10;7.68;;;;;;;23.65;53.89;101305.69;4998751;28;20039;-71
2021/09/09 01:27:04;;;;;;;11.35;7.90;;;;;;;23.67;53.86;101308.97;4999326;28;20117;-71
2021/09/09 01:29:33;;;;;;;10.43;7.20;;;;;;;23.66;53.72;101312.66;5001991;28;20045;-72
2021/09/09 01:31:58;;;;;;;10.32;7.28;;;;;;;23.63;53.93;101305.06;4999214;28;20044;-72
2021/09/09 01:34:24;;;;;;;10.05;7.00;;;;;;;23.64;53.75;101306.72;4999450;28;20030;-72
2021/09/09 01:36:51;;;;;;;10.43;7.28;;;;;;;23.65;53.91;101308.34;5001499;28;20171;-72
2021/09/09 01:39:16;;;;;;;11.98;7.57;;;;;;;23.58;53.80;101291.53;4993804;28;20038;-71
2021/09/09 01:41:42;;;;;;;10.15;7.47;;;;;;;23.63;53.78;101293.63;4997660;28;20483;-71
2021/09/09 01:44:08;;;;;;;9.60;6.68;;;;;;;23.63;53.78;101301.59;4982987;28;20107;-71
2021/09/09 01:46:34;;;;;;;10.52;7.32;;;;;;;23.62;53.75;101294.63;4999412;28;20033;-71
2021/09/09 01:49:01;;;;;;;9.95;7.85;;;;;;;23.58;54.03;101280.91;5000771;28;20499;-71
2021/09/09 01:51:27;;;;;;;9.05;7.47;;;;;;;23.57;53.65;101281.94;4965940;28;20033;-71
2021/09/09 01:53:53;;;;;;;9.57;6.90;;;;;;;23.62;53.79;101298.09;4996779;28;20037;-71
2021/09/09 01:56:19;;;;;;;12.13;8.05;;;;;;;23.61;53.91;101287.66;4998523;28;20177;-72
2021/09/09 01:58:45;;;;;;;12.48;7.80;;;;;;;23.59;53.79;101282.56;4982535;28;20037;-71
2021/09/09 02:01:10;;;;;;;11.32;7.72;;;;;;;23.62;53.84;101278.69;5002533;28;20122;-72
2021/09/09 02:03:36;;;;;;;10.95;7.43;;;;;;;23.44;53.87;101244.56;5004562;28;20030;-71
2021/09/09 02:06:02;;;;;;;10.23;7.47;;;;;;;23.60;53.69;101278.06;4984941;28;20038;-71
2021/09/09 02:08:28;;;;;;;10.35;7.30;;;;;;;23.62;53.87;101270.69;4997587;28;20400;-72
2021/09/09 02:10:53;;;;;;;9.45;7.03;;;;;;;23.59;53.66;101271.91;4986982;28;20050;-71
2021/09/09 02:13:19;;;;;;;9.13;7.18;;;;;;;23.59;53.75;101273.75;4985022;28;20034;-71
2021/09/09 02:15:44;;;;;;;10.40;7.28;;;;;;;23.59;53.89;101266.59;4986834;28;20041;-71
2021/09/09 02:18:10;;;;;;;10.20;7.28;;;;;;;23.59;53.93;101276.41;5001216;28;20054;-71
2021/09/09 02:20:37;;;;;;;9.15;7.13;;;;;;;23.59;53.94;101263.13;4984921;28;20045;-72
2021/09/09 02:23:02;;;;;;;9.95;7.47;;;;;;;23.60;53.81;101262.91;4982755;28;20038;-72
2021/09/09 02:25:28;;;;;;;10.43;7.78;;;;;;;23.60;53.71;101265.59;5004292;28;20506;-72
2021/09/09 02:27:53;;;;;;;10.13;7.43;;;;;;;23.60;53.59;101254.13;5004175;28;20042;-72
2021/09/09 02:30:19;;;;;;;10.40;7.47;;;;;;;23.58;53.90;101256.97;4986765;28;20524;-72
2021/09/09 02:32:44;;;;;;;9.98;7.78;;;;;;;23.59;53.73;101257.81;4968355;28;20045;-72
2021/09/09 02:35:10;;;;;;;9.88;7.30;;;;;;;23.57;53.94;101259.84;5003921;28;20041;-72
2021/09/09 02:37:36;;;;;;;10.10;7.43;;;;;;;23.56;53.89;101261.66;5003217;28;20046;-71
2021/09/09 02:40:02;;;;;;;9.45;7.38;;;;;;;23.56;53.87;101253.66;4987372;28;20048;-71
2021/09/09 02:42:27;;;;;;;9.90;7.07;;;;;;;23.56;53.95;101258.16;5003184;28;20048;-72
2021/09/09 02:44:53;;;;;;;10.65;7.25;;;;;;;23.41;53.91;101237.81;5002236;28;20433;-72
2021/09/09 02:47:19;;;;;;;11.75;7.90;;;;;;;23.57;53.89;101259.84;4985886;28;20034;-72
2021/09/09 02:49:44;;;;;;;10.50;7.78;;;;;;;23.57;53.88;101257.19;5002362;28;20102;-72
2021/09/09 02:52:10;;;;;;;13.20;7.97;;;;;;;23.56;53.82;101261.66;5002332;28;20783;-71
2021/09/09 02:54:36;;;;;;;11.38;7.60;;;;;;;23.56;53.65;101255.50;5001594;28;20134;-72
2021/09/09 02:57:02;;;;;;;10.63;7.20;;;;;;;23.58;53.67;101253.50;5002917;28;20809;-72
2021/09/09 02:59:27;;;;;;;11.43;7.47;;;;;;;23.52;53.70;101247.94;5000320;28;20044;-72
2021/09/09 03:01:53;;;;;;;10.65;7.22;;;;;;;23.50;53.83;101244.59;4983368;28;20092;-71
2021/09/09 03:04:18;;;;;;;10.57;7.97;;;;;;;23.52;53.85;101245.25;5001973;28;20045;-71
2021/09/09 03:06:44;;;;;;;9.07;7.18;;;;;;;23.56;53.80;101242.22;5003723;28;20036;-71
2021/09/09 03:09:09;;;;;;;9.23;7.13;;;;;;;23.50;53.93;101230.50;4987907;28;20053;-71
2021/09/09 03:11:35;;;;;;;10.48;7.53;;;;;;;23.54;53.85;101237.09;4982372;28;20049;-71
2021/09/09 03:14:00;;;;;;;10.70;7.28;;;;;;;23.53;53.85;101222.16;5002262;28;20037;-71
2021/09/09 03:16:26;;;;;;;9.48;7.10;;;;;;;23.55;53.91;101227.28;5001316;28;20142;-71
2021/09/09 03:18:51;;;;;;;12.30;8.30;;;;;;;23.51;53.73;101222.31;5000770;28;20129;-71
2021/09/09 03:21:17;;;;;;;10.88;7.10;;;;;;;23.54;53.88;101226.47;5003020;28;20045;-71
2021/09/09 03:23:43;;;;;;;9.93;7.50;;;;;;;23.52;53.94;101215.19;5000447;28;20038;-72
2021/09/09 03:26:08;;;;;;;9.45;7.22;;;;;;;23.46;53.52;101200.84;5001404;28;20046;-71
2021/09/09 03:28:34;;;;;;;10.18;7.30;;;;;;;23.53;53.77;101216.84;5000441;28;20468;-72
2021/09/09 03:30:59;;;;;;;10.98;7.90;;;;;;;23.49;53.73;101204.94;5003029;28;20071;-72
2021/09/09 03:33:25;;;;;;;12.63;8.35;;;;;;;23.50;53.73;101204.75;4984113;28;20065;-71
2021/09/09 03:35:51;;;;;;;9.90;7.50;;;;;;;23.52;53.70;101209.88;5003199;28;20037;-71
2021/09/09 03:38:17;;;;;;;9.40;6.88;;;;;;;23.47;54.03;101204.31;4997450;28;20042;-71
2021/09/09 03:40:42;;;;;;;9.88;7.18;;;;;;;23.51;53.64;101211.69;4993658;28;20044;-71
2021/09/09 03:43:08;;;;;;;7.78;6.38;;;;;;;23.49;53.74;101204.94;5009805;28;20042;-72
2021/09/09 03:45:34;;;;;;;9.95;7.40;;;;;;;23.45;53.72;101193.88;5003366;28;20121;-72
2021/09/09 03:47:59;;;;;;;9.48;7.10;;;;;;;23.46;53.95;101195.53;4983115;28;20046;-71
2021/09/09 03:50:25;;;;;;;10.23;7.35;;;;;;;23.52;53.80;101208.06;4969140;28;20106;-72
2021/09/09 03:52:50;;;;;;;11.00;7.40;;;;;;;23.52;53.71;101208.06;4983802;28;20484;-71
2021/09/09 03:55:16;;;;;;;11.57;7.80;;;;;;;23.48;53.58;101188.16;5003881;28;20059;-71
2021/09/09 03:57:42;;;;;;;10.32;7.28;;;;;;;23.51;53.64;101201.06;4984946;28;20061;-72
2021/09/09 04:00:08;;;;;;;9.20;7.05;;;;;;;23.51;53.77;101193.09;4985236;28;20038;-72
2021/09/09 04:02:34;;;;;;;10.05;7.78;;;;;;;23.47;53.74;101180.38;4999966;28;20042;-72
2021/09/09 04:04:59;;;;;;;10.18;7.68;;;;;;;23.50;53.67;101193.28;5001001;28;20054;-72
2021/09/09 04:07:25;;;;;;;9.90;7.70;;;;;;;23.46;53.76;101192.03;4999899;28;20048;-72
2021/09/09 04:09:50;;;;;;;9.63;7.32;;;;;;;23.42;53.72;101182.81;4992054;28;20095;-71
2021/09/09 04:12:16;;;;;;;9.63;7.25;;;;;;;23.50;53.76;101188.78;5002480;28;20049;-71
2021/09/09 04:14:42;;;;;;;12.57;8.20;;;;;;;23.49;53.86;101189.81;5000291;28;20075;-72
2021/09/09 04:17:09;;;;;;;10.60;7.80;;;;;;;23.50;53.98;101183.47;5002535;28;20450;-71
2021/09/09 04:19:35;;;;;;;10.63;7.75;;;;;;;23.49;53.82;101189.81;4983127;28;20080;-71
2021/09/09 04:22:06;;;;;;;8.88;7.10;;;;;;;23.46;53.77;101182.22;5000636;28;20323;-72
2021/09/09 04:24:31;;;;;;;10.10;7.53;;;;;;;23.49;53.67;101186.34;4982908;28;20074;-72
2021/09/09 04:30:51;;;;;;;11.80;8.10;;;;;;;23.45;53.81;101171.78;5001171;28;20040;-71
2021/09/09 04:33:17;;;;;;;11.10;7.93;;;;;;;23.46;53.63;101179.56;4976527;28;20046;-72
2021/09/09 04:35:43;;;;;;;10.73;8.07;;;;;;;23.45;53.65;101174.44;5001610;28;20218;-72
2021/09/09 04:38:08;;;;;;;10.50;7.72;;;;;;;23.47;53.73;101189.19;4997013;28;20038;-71
2021/09/09 04:40:34;;;;;;;11.55;8.52;;;;;;;23.45;53.62;101185.09;5025342;28;20670;-72
2021/09/09 04:43:00;;;;;;;12.60;8.43;;;;;;;23.49;53.69;101187.16;5065381;28;20044;-72
2021/09/09 04:45:26;;;;;;;10.10;7.70;;;;;;;23.45;53.67;101185.09;5079910;28;20066;-72
2021/09/09 04:47:52;;;;;;;13.23;8.32;;;;;;;23.45;53.62;101183.25;5066830;28;20117;-72
2021/09/09 04:50:17;;;;;;;11.00;8.10;;;;;;;23.42;53.75;101177.50;5082184;28;20473;-72
2021/09/09 04:52:43;;;;;;;11.02;7.93;;;;;;;23.45;53.67;101182.44;5050160;28;20035;-71
2021/09/09 04:55:09;;;;;;;11.25;8.23;;;;;;;23.46;53.72;101184.06;5063452;28;20551;-72
2021/09/09 04:57:35;;;;;;;9.95;7.63;;;;;;;23.42;53.54;101183.63;5082948;28;20035;-72
2021/09/09 05:00:01;;;;;;;11.60;8.57;;;;;;;23.39;53.55;101170.75;5079490;28;20511;-71
2021/09/09 05:02:26;;;;;;;11.32;8.05;;;;;;;23.25;53.68;101155.72;5081144;28;20032;-71
2021/09/09 05:04:52;;;;;;;12.10;8.15;;;;;;;23.42;53.65;101173.00;5083083;28;20108;-72
2021/09/09 05:07:17;;;;;;;10.80;7.93;;;;;;;23.41;53.88;101184.66;5079142;28;20032;-71
2021/09/09 05:09:43;;;;;;;10.50;7.82;;;;;;;23.43;53.84;101181.81;5050155;28;20040;-72
2021/09/09 05:12:08;;;;;;;11.05;8.52;;;;;;;23.43;53.87;101182.63;5064728;28;20093;-72
2021/09/09 05:14:35;;;;;;;11.50;8.45;;;;;;;23.42;53.90;101178.31;5084257;28;20541;-72
2021/09/09 05:17:00;;;;;;;12.02;8.38;;;;;;;23.42;53.70;101172.19;5082832;28;20809;-71
2021/09/09 05:19:27;;;;;;;12.18;8.82;;;;;;;23.42;53.76;101166.88;5083860;28;20104;-71
2021/09/09 05:21:52;;;;;;;12.48;8.68;;;;;;;23.44;53.52;101178.94;5083221;28;20051;-71
2021/09/09 05:24:18;;;;;;;12.10;8.45;;;;;;;23.42;53.83;101173.00;5082823;28;20046;-72
2021/09/09 05:26:43;;;;;;;11.65;8.48;;;;;;;23.42;53.76;101175.66;5084623;28;20068;-71
2021/09/09 05:29:09;;;;;;;12.10;8.55;;;;;;;23.40;53.89;101163.59;5063283;28;20491;-71
2021/09/09 05:31:34;;;;;;;10.55;8.20;;;;;;;23.40;53.69;101171.56;5083853;28;20028;-72
2021/09/09 05:34:00;;;;;;;12.07;8.65;;;;;;;23.39;53.67;101160.13;5064366;28;20036;-72
2021/09/09 05:36:25;;;;;;;11.38;8.23;;;;;;;23.43;53.49;101171.19;5087357;28;20670;-71
2021/09/09 05:38:51;;;;;;;12.48;8.93;;;;;;;23.42;53.84;101169.53;5088166;28;20397;-71
2021/09/09 05:41:16;;;;;;;11.02;8.10;;;;;;;23.42;53.64;101166.88;5086597;28;20093;-71
2021/09/09 05:43:42;;;;;;;11.13;8.25;;;;;;;23.39;53.58;101164.63;5068031;28;20046;-72
2021/09/09 05:46:07;;;;;;;11.52;8.45;;;;;;;23.44;53.46;101164.84;5066965;28;20043;-72
2021/09/09 05:48:33;;;;;;;11.80;8.38;;;;;;;23.40;53.48;101168.91;5067348;28;20047;-71
2021/09/09 05:50:59;;;;;;;10.93;8.05;;;;;;;23.40;53.71;101169.72;5067586;28;20032;-72
2021/09/09 05:53:24;;;;;;;11.65;8.80;;;;;;;23.38;53.59;101165.63;5084435;28;20039;-71
2021/09/09 05:55:50;;;;;;;11.07;8.50;;;;;;;23.39;53.78;101170.75;5068945;28;20401;-71
2021/09/09 05:58:15;;;;;;;11.50;8.38;;;;;;;23.20;53.73;101135.06;5067821;28;20036;-71
2021/09/09 06:00:41;;;;;;;11.73;7.90;;;;;;;23.39;53.40;101170.75;5087974;28;20036;-72
2021/09/09 06:03:07;;;;;;;11.70;8.43;;;;;;;23.42;53.50;101170.34;5083840;28;20131;-71
2021/09/09 06:05:34;;;;;;;11.30;8.68;;;;;;;23.38;53.83;101161.13;5085959;28;20031;-71
2021/09/09 06:08:00;;;;;;;11.75;8.75;;;;;;;23.38;53.83;101163.78;5046127;28;20041;-71
2021/09/09 06:10:26;;;;;;;11.50;8.30;;;;;;;23.41;53.43;101168.72;5086509;28;20043;-72
2021/09/09 06:12:51;;;;;;;12.25;9.15;;;;;;;23.38;53.72;101162.97;5083986;28;20044;-72
2021/09/09 06:15:17;;;;;;;10.02;8.07;;;;;;;23.38;53.48;101161.13;5085052;28;20044;-72
2021/09/09 06:17:43;;;;;;;10.48;8.05;;;;;;;23.38;53.45;101173.59;5085622;28;20040;-72
2021/09/09 06:20:09;;;;;;;11.52;8.90;;;;;;;23.40;53.63;101176.88;5052512;28;20040;-72
2021/09/09 06:22:35;;;;;;;11.82;8.32;;;;;;;23.41;53.50;101174.03;5080119;28;20794;-71
2021/09/09 06:25:04;;;;;;;10.90;8.73;;;;;;;23.39;53.68;101175.25;5084703;28;20133;-71
2021/09/09 06:27:29;;;;;;;13.03;8.20;;;;;;;23.39;53.56;101169.94;5084864;28;20193;-72
2021/09/09 06:29:55;;;;;;;11.75;8.45;;;;;;;23.38;53.49;101165.63;5082034;28;20886;-72
2021/09/09 06:32:20;;;;;;;11.90;8.93;;;;;;;23.40;53.52;101159.09;5066780;28;20036;-71
2021/09/09 06:34:46;;;;;;;12.80;8.80;;;;;;;23.34;53.36;101151.91;5065673;28;20048;-71
2021/09/09 06:37:11;;;;;;;11.35;8.45;;;;;;;23.39;53.70;101157.47;5085499;28;20051;-71
2021/09/09 06:39:37;;;;;;;12.18;9.50;;;;;;;23.39;53.58;101154.81;5070398;28;20044;-72
2021/09/09 06:42:03;;;;;;;14.70;9.88;;;;;;;23.38;53.49;101155.00;5052856;28;20059;-72
2021/09/09 06:44:28;;;;;;;11.35;8.77;;;;;;;23.38;53.36;101147.84;5064953;28;20198;-71
2021/09/09 06:46:54;;;;;;;13.20;8.82;;;;;;;23.35;53.33;101144.78;5064817;28;20017;-72
2021/09/09 06:49:19;;;;;;;12.77;9.23;;;;;;;23.43;53.66;101155.22;5053751;28;20410;-71
2021/09/09 06:51:45;;;;;;;13.98;9.32;;;;;;;23.41;53.45;101152.78;5068236;28;20055;-72
2021/09/09 06:54:11;;;;;;;12.68;9.20;;;;;;;23.39;53.68;101161.97;5064199;28;20025;-72
2021/09/09 06:56:36;;;;;;;12.10;9.05;;;;;;;23.43;53.41;101148.06;5061734;28;20478;-72
2021/09/09 06:59:02;;;;;;;15.13;9.60;;;;;;;23.42;53.32;101157.06;5060426;28;20036;-71
2021/09/09 07:01:27;;;;;;;13.60;9.27;;;;;;;23.46;53.30;101149.50;5063284;28;20078;-72
2021/09/09 07:03:53;;;;;;;13.10;9.38;;;;;;;23.46;53.49;101147.69;5093725;28;20036;-72
2021/09/09 07:06:19;;;;;;;11.38;8.48;;;;;;;23.50;53.43;101148.09;5063635;28;20425;-72
2021/09/09 07:08:44;;;;;;;12.18;8.65;;;;;;;23.41;53.25;101133.34;5062510;28;20051;-72
2021/09/09 07:11:10;;;;;;;13.50;9.10;;;;;;;23.51;53.40;101147.91;5051541;28;20044;-71
2021/09/09 07:13:35;;;;;;;11.25;8.35;;;;;;;23.46;53.17;101134.38;5063656;28;20122;-72
2021/09/09 07:16:02;;;;;;;13.65;9.35;;;;;;;23.52;53.26;101140.78;5064697;28;20078;-71
2021/09/09 07:18:28;;;;;;;11.63;8.77;;;;;;;23.52;53.16;101146.09;5061383;28;20675;-71
2021/09/09 07:20:54;;;;;;;13.32;9.45;;;;;;;23.57;53.19;101143.69;5063404;28;20044;-72
2021/09/09 07:23:20;;;;;;;13.15;8.48;;;;;;;23.59;53.28;101149.63;5061104;28;20391;-71
2021/09/09 07:25:47;;;;;;;13.40;9.48;;;;;;;23.52;53.32;101128.31;5060336;28;20104;-71
2021/09/09 07:28:13;;;;;;;11.45;8.25;;;;;;;23.57;53.38;101134.91;5064528;28;20551;-72
2021/09/09 07:30:38;;;;;;;11.57;8.60;;;;;;;23.61;53.13;101136.13;5061003;28;20040;-71
2021/09/09 07:33:04;;;;;;;12.75;8.70;;;;;;;23.57;53.00;101129.56;5064029;28;20858;-72
2021/09/09 07:35:31;;;;;;;9.45;8.02;;;;;;;23.62;53.15;101133.28;5064080;28;20033;-72
2021/09/09 07:37:57;;;;;;;11.07;8.20;;;;;;;23.62;53.49;101141.25;5063709;28;20143;-71
2021/09/09 07:40:23;;;;;;;11.65;8.73;;;;;;;23.68;53.31;101142.28;5065476;28;20457;-71
2021/09/09 07:42:49;;;;;;;13.23;8.75;;;;;;;23.65;53.08;101132.88;5067042;28;20081;-71
2021/09/09 07:45:14;;;;;;;12.30;9.13;;;;;;;23.69;53.27;101134.13;5070833;28;20537;-72
2021/09/09 07:47:40;;;;;;;11.90;8.55;;;;;;;23.66;53.07;101129.19;5083825;28;20126;-71
2021/09/09 07:50:08;;;;;;;11.05;8.48;;;;;;;23.71;53.37;101133.94;5083498;28;20035;-72
2021/09/09 07:52:34;;;;;;;10.68;8.23;;;;;;;23.69;53.29;101133.28;5082932;28;20091;-71
2021/09/09 07:54:59;;;;;;;11.65;8.52;;;;;;;23.72;53.19;101140.91;5082407;28;20040;-69
2021/09/09 07:57:25;;;;;;;13.77;8.43;;;;;;;23.73;53.41;101142.53;5066256;28;20040;-69
2021/09/09 07:59:51;;;;;;;11.80;8.55;;;;;;;23.73;53.31;101132.72;5085486;28;20048;-69
2021/09/09 08:02:17;;;;;;;13.15;8.73;;;;;;;23.76;53.32;101142.13;5082809;28;20046;-69
2021/09/09 08:04:43;;;;;;;12.80;8.73;;;;;;;23.74;53.33;101134.38;5081901;28;20533;-69
2021/09/09 08:07:08;;;;;;;11.77;8.45;;;;;;;23.77;53.27;101143.78;5071732;28;20040;-69
2021/09/09 08:09:34;;;;;;;12.32;8.15;;;;;;;23.77;53.15;101133.97;5086095;28;20508;-69
2021/09/09 08:12:01;;;;;;;11.25;8.43;;;;;;;23.77;53.33;101141.13;5084807;28;20036;-69
2021/09/09 08:14:28;;;;;;;12.88;8.25;;;;;;;23.76;53.12;101140.31;5066289;28;20594;-70
2021/09/09 08:16:53;;;;;;;11.13;8.10;;;;;;;23.80;53.13;101144.19;5084704;28;20552;-69
2021/09/09 08:19:19;;;;;;;11.75;8.52;;;;;;;23.83;53.39;101150.94;5065614;28;20143;-70
2021/09/09 08:21:44;;;;;;;12.60;8.68;;;;;;;23.82;53.23;101151.97;5068469;28;20036;-70
2021/09/09 08:24:10;;;;;;;11.00;8.18;;;;;;;23.76;53.45;101134.97;5086087;28;20470;-70
2021/09/09 08:26:35;;;;;;;12.15;7.93;;;;;;;23.80;53.32;101146.03;5063068;28;21676;-69
2021/09/09 08:29:01;;;;;;;11.93;8.70;;;;;;;23.79;53.29;101139.91;5086363;28;20043;-70
2021/09/09 08:31:27;;;;;;;12.18;8.20;;;;;;;23.87;53.30;101154.84;5084367;28;20074;-70
2021/09/09 08:33:54;;;;;;;10.68;8.27;;;;;;;23.79;53.35;101134.59;5076074;28;20391;-69
2021/09/09 08:36:21;;;;;;;10.20;7.75;;;;;;;23.72;53.46;101115.13;5072170;28;20047;-69
2021/09/09 08:38:47;;;;;;;10.88;8.32;;;;;;;23.90;53.24;101137.69;5082469;28;20043;-70
2021/09/09 08:41:14;;;;;;;13.63;9.05;;;;;;;23.79;53.69;101117.81;5085225;28;20051;-68
2021/09/09 08:43:39;;;;;;;12.63;8.40;;;;;;;23.86;53.42;101133.78;5067022;28;20043;-69
2021/09/09 08:46:05;;;;;;;13.20;8.38;;;;;;;23.94;53.31;101139.75;5066464;28;20036;-68
2021/09/09 08:48:31;;;;;;;12.82;9.10;;;;;;;23.89;53.52;101128.09;5066194;28;20036;-68
2021/09/09 08:50:57;;;;;;;14.20;8.50;;;;;;;23.89;53.43;101130.75;5083795;28;20390;-68
2021/09/09 08:53:23;;;;;;;10.55;8.13;;;;;;;23.94;53.31;101129.13;5079296;28;20040;-69
2021/09/09 08:55:49;;;;;;;12.57;7.93;;;;;;;23.94;53.53;101130.97;5082634;28;20050;-68
2021/09/09 08:58:16;;;;;;;11.82;8.95;;;;;;;23.97;53.40;101127.91;5082325;28;20032;-69
2021/09/09 09:01:13;;;;;;;13.98;8.77;;;;;;;23.97;53.54;101126.06;5068415;28;20058;-69
2021/09/09 09:03:53;;;;;;;11.80;8.85;;;;;;;23.98;53.55;101132.19;5083939;28;20040;-69
2021/09/09 09:06:22;;;;;;;12.38;8.40;;;;;;;23.97;53.60;101125.22;5083862;28;20039;-69
2021/09/09 09:08:54;;;;;;;12.07;9.05;;;;;;;23.97;53.49;101128.72;5083435;28;20031;-69
2021/09/09 09:11:25;;;;;;;11.43;9.23;;;;;;;23.97;53.63;101131.38;5082001;28;20031;-69
2021/09/09 09:13:51;;;;;;;13.07;9.13;;;;;;;23.96;53.60;101123.59;5084294;28;20097;-69
2021/09/09 09:16:17;;;;;;;11.82;9.15;;;;;;;23.95;53.54;101120.13;5080867;28;20031;-69
2021/09/09 09:18:44;;;;;;;10.77;8.63;;;;;;;24.01;53.47;101123.81;5081322;28;20046;-69
2021/09/09 09:21:09;;;;;;;13.13;8.45;;;;;;;23.94;53.42;101115.00;5066539;28;20043;-69
2021/09/09 09:23:35;;;;;;;13.43;8.65;;;;;;;23.98;53.69;101111.72;5071776;28;20097;-69
2021/09/09 09:26:03;;;;;;;12.65;8.32;;;;;;;24.01;53.47;101124.63;5081976;28;20039;-69
2021/09/09 09:28:46;;;;;;;12.50;8.50;;;;;;;24.00;53.56;101122.16;5081660;28;20799;-69
2021/09/09 09:31:22;;;;;;;13.73;8.70;;;;;;;24.02;53.46;101120.13;5082017;28;20036;-69
2021/09/09 09:33:58;;;;;;;11.90;8.90;;;;;;;24.02;53.47;101126.25;5075125;28;20127;-69
2021/09/09 09:36:25;;;;;;;13.00;8.93;;;;;;;24.03;53.44;101122.59;5082861;28;20032;-69
2021/09/09 09:39:04;;;;;;;11.10;8.30;;;;;;;23.96;53.60;101115.63;5084073;28;20037;-69
2021/09/09 09:41:30;;;;;;;13.32;9.57;;;;;;;24.00;53.49;101123.00;5075188;28;20251;-69
2021/09/09 09:44:03;;;;;;;13.43;9.20;;;;;;;24.01;53.53;101121.97;5047927;28;20044;-69
2021/09/09 09:46:40;;;;;;;11.30;8.73;;;;;;;24.03;53.50;101121.75;5080270;28;20039;-69
2021/09/09 09:49:19;;;;;;;12.85;9.35;;;;;;;23.86;53.53;101088.56;5066663;28;20041;-69
2021/09/09 09:51:46;;;;;;;;;;;;;;;24.05;53.52;101122.38;5082321;28;20043;-68
2021/09/09 09:54:13;;;;;;;12.27;8.82;;;;;;;24.02;53.52;101110.31;5071178;28;20690;-69
2021/09/09 09:56:40;;;;;;;12.10;8.75;;;;;;;24.06;53.55;101119.53;5076430;28;20136;-68
2021/09/09 09:59:06;;;;;;;12.15;9.02;;;;;;;23.97;53.50;101109.28;5085082;28;20794;-69
2021/09/09 10:01:33;;;;;;;15.90;9.07;;;;;;;24.01;53.45;101108.66;5059771;28;20132;-69
2021/09/09 10:04:05;;;;;;;12.32;8.90;;;;;;;24.04;53.60;101112.75;5067574;28;20024;-69
2021/09/09 10:06:32;;;;;;;12.02;8.32;;;;;;;24.02;53.66;101104.97;5078249;28;20139;-70
2021/09/09 10:08:58;;;;;;;11.55;8.38;;;;;;;24.05;53.52;101107.25;5081652;28;20405;-69
2021/09/09 10:11:25;;;;;;;13.23;9.57;;;;;;;24.04;53.55;101100.28;5076847;28;20801;-69
2021/09/09 10:13:50;;;;;;;11.80;8.98;;;;;;;24.01;53.55;101098.03;5080958;28;20032;-69
2021/09/09 10:16:19;;;;;;;11.57;8.48;;;;;;;24.07;53.53;101101.75;5082602;28;20148;-69
2021/09/09 10:18:45;;;;;;;13.02;9.32;;;;;;;24.02;53.31;101086.38;5077243;28;20047;-70
2021/09/09 10:21:11;;;;;;;11.70;8.95;;;;;;;24.04;53.60;101094.97;5077397;28;20521;-69
2021/09/09 10:23:36;;;;;;;11.95;9.07;;;;;;;24.05;53.58;101091.28;5081540;28;20047;-69
2021/09/09 10:26:03;;;;;;;13.45;8.73;;;;;;;24.06;53.60;101092.94;5078798;28;20153;-69
2021/09/09 10:28:56;;;;;;;13.60;9.95;;;;;;;24.03;53.48;101087.19;5087995;28;20071;-69
2021/09/09 10:31:23;;;;;;;12.70;9.18;;;;;;;24.06;53.60;101092.94;5075684;28;20554;-69
2021/09/09 10:33:52;;;;;;;11.77;9.05;;;;;;;24.03;53.55;101085.34;5078527;28;20530;-69
2021/09/09 10:36:40;;;;;;;12.73;9.02;;;;;;;24.07;53.42;101089.25;5085003;28;20039;-69
2021/09/09 10:39:33;;;;;;;14.00;9.07;;;;;;;24.01;53.77;101079.41;5076484;28;20052;-69
2021/09/09 10:41:59;;;;;;;13.10;9.52;;;;;;;24.08;53.54;101093.56;5084975;28;20562;-69
2021/09/09 10:44:28;;;;;;;13.93;9.25;;;;;;;24.06;53.55;101076.97;5082137;28;20088;-69
2021/09/09 10:46:53;;;;;;;12.65;9.50;;;;;;;24.06;53.67;101081.47;5072752;28;20036;-69
2021/09/09 10:49:21;;;;;;;12.13;9.05;;;;;;;24.06;53.71;101076.97;5080903;28;20044;-69
2021/09/09 10:52:06;;;;;;;11.65;9.60;;;;;;;24.09;53.43;101068.59;5075563;28;20055;-69
2021/09/09 10:54:34;;;;;;;12.75;9.68;;;;;;;24.08;53.61;101061.63;5059007;28;20032;-69
2021/09/09 10:57:14;;;;;;;12.02;9.15;;;;;;;24.08;53.59;101071.47;5076351;28;20046;-69
2021/09/09 10:59:48;;;;;;;13.48;9.45;;;;;;;24.11;53.54;101055.09;5077333;28;20903;-69
2021/09/09 11:02:15;;;;;;;12.18;9.40;;;;;;;24.09;53.49;101054.47;5083902;28;20180;-69
2021/09/09 11:04:41;;;;;;;12.00;8.98;;;;;;;24.03;53.59;101052.59;5081731;28;20044;-69
2021/09/09 11:07:23;;;;;;;11.27;8.73;;;;;;;24.10;53.48;101051.59;5082337;28;20036;-69
2021/09/09 11:10:01;;;;;;;12.55;9.23;;;;;;;24.07;53.55;101037.91;5076141;28;20486;-69
2021/09/09 11:12:33;;;;;;;12.50;9.18;;;;;;;24.09;53.53;101046.50;5083877;28;20040;-69
2021/09/09 11:15:04;;;;;;;13.05;9.18;;;;;;;24.11;53.47;101053.25;5068982;28;20054;-69
2021/09/09 11:17:30;;;;;;;14.73;10.07;;;;;;;24.03;53.62;101034.78;5057294;28;20036;-69
2021/09/09 11:20:10;;;;;;;12.85;9.63;;;;;;;24.10;53.47;101035.66;5085299;28;20066;-69
2021/09/09 11:22:39;;;;;;;12.85;9.00;;;;;;;24.06;53.52;101037.06;5074287;28;20048;-69